Time;durP1;ratioP1;P1;durP2;ratioP2;P2;SDS_P1;SDS_P2;PMS_P1;PMS_P2;Temp;Humidity;BMP_temperature;BMP_pressure;BME280_temperature;BME280_humidity;BME280_pressure;Samples;Min_cycle;Max_cycle;Signal;HPM_P1;HPM_P2
2022/02/22 00:00:48;;;;;;;9.95;2.92;;;5.50;1.00;;;;;;5110940;27;20682;-87
2022/02/22 00:03:15;;;;;;;10.18;1.92;;;5.50;1.00;;;;;;5080340;28;20689;-87
2022/02/22 00:05:42;;;;;;;8.30;2.25;;;5.50;1.00;;;;;;5096487;28;20231;-86
2022/02/22 00:08:09;;;;;;;8.05;2.70;;;5.50;1.00;;;;;;5098478;27;20244;-86
2022/02/22 00:10:37;;;;;;;7.20;2.40;;;5.60;1.00;;;;;;5100704;27;20564;-86
2022/02/22 00:13:04;;;;;;;5.40;2.60;;;5.60;1.00;;;;;;5121473;27;20271;-88
2022/02/22 00:15:30;;;;;;;9.10;2.92;;;5.60;1.00;;;;;;5129756;27;20200;-89
2022/02/22 00:17:57;;;;;;;7.32;2.63;;;5.60;1.00;;;;;;5100731;27;20266;-87
2022/02/22 00:20:24;;;;;;;9.98;2.88;;;5.60;1.00;;;;;;5096759;28;20251;-85
2022/02/22 00:22:51;;;;;;;6.55;1.83;;;5.60;1.00;;;;;;5104900;28;20257;-86
2022/02/22 00:25:17;;;;;;;3.45;2.28;;;5.60;1.00;;;;;;5106580;27;20220;-87
2022/02/22 00:27:45;;;;;;;6.00;2.47;;;5.60;1.00;;;;;;5113220;27;20227;-87
2022/02/22 00:30:15;;;;;;;7.22;2.67;;;5.50;1.00;;;;;;5110741;27;20694;-86
2022/02/22 00:32:42;;;;;;;6.60;2.35;;;5.50;1.00;;;;;;5110726;27;20230;-86
2022/02/22 00:35:10;;;;;;;4.65;2.88;;;5.50;1.00;;;;;;5093958;28;20625;-86
2022/02/22 00:37:37;;;;;;;7.25;2.25;;;5.50;1.00;;;;;;5115917;28;20224;-87
2022/02/22 00:40:06;;;;;;;7.80;3.20;;;5.60;1.00;;;;;;5095869;28;20312;-85
2022/02/22 00:42:33;;;;;;;6.45;2.50;;;5.50;1.00;;;;;;5103296;27;20224;-88
2022/02/22 00:45:02;;;;;;;6.95;2.70;;;5.50;1.00;;;;;;5102484;28;20224;-88
2022/02/22 00:47:29;;;;;;;7.55;2.60;;;5.50;1.00;;;;;;5121594;27;20254;-88
2022/02/22 00:49:56;;;;;;;6.60;2.22;;;5.50;1.00;;;;;;5116142;28;20246;-86
2022/02/22 00:52:23;;;;;;;9.00;2.88;;;5.50;1.00;;;;;;5105039;28;20246;-87
2022/02/22 00:54:53;;;;;;;6.07;2.78;;;5.60;1.00;;;;;;5086494;28;20256;-87
2022/02/22 00:57:20;;;;;;;6.25;2.17;;;5.60;1.00;;;;;;5091844;27;20296;-87
2022/02/22 00:59:47;;;;;;;6.15;2.45;;;5.60;1.00;;;;;;5103857;27;21169;-86
2022/02/22 01:02:15;;;;;;;5.43;2.58;;;5.60;1.00;;;;;;5089718;28;20224;-85
2022/02/22 01:04:42;;;;;;;5.68;2.15;;;5.60;1.00;;;;;;5105425;28;20265;-87
2022/02/22 01:07:16;;;;;;;7.88;2.30;;;5.60;1.00;;;;;;5112321;27;20220;-85
2022/02/22 01:09:43;;;;;;;7.30;2.00;;;5.60;1.00;;;;;;5105975;27;20212;-88
2022/02/22 01:12:10;;;;;;;7.60;2.50;;;5.60;1.00;;;;;;5134479;27;20295;-87
2022/02/22 01:14:37;;;;;;;6.28;2.67;;;5.60;1.00;;;;;;5127586;27;20196;-87
2022/02/22 01:17:04;;;;;;;6.05;2.38;;;5.60;1.00;;;;;;5133202;27;20203;-87
2022/02/22 01:19:32;;;;;;;5.22;2.75;;;5.50;1.00;;;;;;5117397;27;21329;-86
2022/02/22 01:22:00;;;;;;;5.40;2.40;;;5.50;1.00;;;;;;5111122;27;20286;-87
2022/02/22 01:24:26;;;;;;;11.77;2.80;;;5.50;1.00;;;;;;5103441;27;20224;-86
2022/02/22 01:26:53;;;;;;;6.78;2.33;;;5.50;1.00;;;;;;5099607;27;20211;-86
2022/02/22 01:29:20;;;;;;;5.55;2.05;;;5.60;1.00;;;;;;5096316;27;24443;-86
2022/02/22 01:31:47;;;;;;;5.60;2.13;;;5.50;1.00;;;;;;5091607;27;20215;-86
2022/02/22 01:34:14;;;;;;;6.72;2.55;;;5.60;1.00;;;;;;5099840;27;20285;-85
2022/02/22 01:36:42;;;;;;;6.20;1.95;;;5.60;1.00;;;;;;5099506;27;20228;-86
2022/02/22 01:39:08;;;;;;;8.57;2.10;;;5.60;1.00;;;;;;5099636;28;20235;-85
2022/02/22 01:41:40;;;;;;;6.38;2.35;;;5.70;1.00;;;;;;5106114;28;21190;-87
2022/02/22 01:44:07;;;;;;;7.43;2.35;;;5.70;1.00;;;;;;5134747;27;20267;-86
2022/02/22 01:46:34;;;;;;;9.23;2.70;;;5.70;1.00;;;;;;5126630;27;20278;-87
2022/02/22 01:49:01;;;;;;;10.80;3.00;;;5.80;1.00;;;;;;5098919;27;20235;-86
2022/02/22 01:51:27;;;;;;;6.68;2.53;;;5.80;1.00;;;;;;5096282;27;20259;-86
2022/02/22 01:53:56;;;;;;;9.68;2.90;;;5.80;1.00;;;;;;5100705;27;20466;-86
2022/02/22 01:56:24;;;;;;;4.72;2.42;;;5.70;1.00;;;;;;5103402;27;20215;-85
2022/02/22 01:58:52;;;;;;;7.38;2.22;;;5.80;1.00;;;;;;5110237;27;20215;-88
2022/02/22 02:01:19;;;;;;;8.43;2.10;;;5.80;1.00;;;;;;5137721;27;20203;-88
2022/02/22 02:03:47;;;;;;;6.30;2.20;;;5.80;1.00;;;;;;5114580;27;20325;-86
2022/02/22 02:06:17;;;;;;;7.38;2.22;;;5.80;1.00;;;;;;5114048;27;20235;-85
2022/02/22 02:08:44;;;;;;;5.38;2.03;;;5.80;1.00;;;;;;5103255;27;20227;-86
2022/02/22 02:11:12;;;;;;;6.10;2.13;;;5.80;1.00;;;;;;5114850;27;20294;-86
2022/02/22 02:13:39;;;;;;;10.60;2.60;;;5.80;1.00;;;;;;5124642;27;20246;-87
2022/02/22 02:16:07;;;;;;;6.05;2.00;;;5.80;1.00;;;;;;5125663;27;20212;-85
2022/02/22 02:18:34;;;;;;;5.15;2.00;;;5.80;1.00;;;;;;5122609;27;20239;-87
2022/02/22 02:21:02;;;;;;;6.15;1.90;;;5.80;1.00;;;;;;5106351;28;20215;-88
2022/02/22 02:23:30;;;;;;;6.07;2.00;;;5.80;1.00;;;;;;5124858;27;20204;-88
2022/02/22 02:25:58;;;;;;;3.83;1.80;;;5.80;1.00;;;;;;5111306;27;20288;-86
2022/02/22 02:28:25;;;;;;;9.13;2.08;;;5.90;1.00;;;;;;5100987;27;20219;-85
2022/02/22 02:30:52;;;;;;;6.38;2.10;;;5.90;1.00;;;;;;5082897;28;20312;-86
2022/02/22 02:33:18;;;;;;;4.97;1.80;;;6.00;1.00;;;;;;5081573;28;20231;-86
2022/02/22 02:35:45;;;;;;;7.30;2.50;;;5.90;1.00;;;;;;5094274;27;20215;-86
2022/02/22 02:38:12;;;;;;;7.70;1.73;;;5.90;1.00;;;;;;5082932;28;21009;-86
2022/02/22 02:40:40;;;;;;;7.50;2.97;;;5.80;1.00;;;;;;5079581;28;20334;-86
2022/02/22 02:43:07;;;;;;;8.25;2.15;;;5.80;1.00;;;;;;5096388;27;20299;-86
2022/02/22 02:45:34;;;;;;;4.38;1.55;;;5.80;1.00;;;;;;5099757;27;20383;-89
2022/02/22 02:48:01;;;;;;;4.97;2.03;;;5.80;1.00;;;;;;5111250;27;20234;-87
2022/02/22 02:50:28;;;;;;;8.27;1.90;;;5.80;1.00;;;;;;5100792;28;20297;-87
2022/02/22 02:52:55;;;;;;;8.55;2.40;;;5.70;1.00;;;;;;5103166;27;20219;-87
2022/02/22 02:55:24;;;;;;;8.98;2.53;;;5.70;1.00;;;;;;5108813;27;20218;-86
2022/02/22 02:57:52;;;;;;;8.50;2.70;;;5.60;1.00;;;;;;5098023;27;20224;-86
2022/02/22 03:00:19;;;;;;;10.52;2.63;;;5.60;1.00;;;;;;5079131;28;20273;-86
2022/02/22 03:02:46;;;;;;;6.43;2.10;;;5.60;1.00;;;;;;5094914;27;20254;-85
2022/02/22 03:05:13;;;;;;;7.38;2.58;;;5.60;1.00;;;;;;5104975;27;20380;-87
2022/02/22 03:07:39;;;;;;;8.35;3.30;;;5.60;1.00;;;;;;5105627;27;20231;-86
2022/02/22 03:10:07;;;;;;;10.23;2.70;;;5.60;1.00;;;;;;5105202;27;21626;-85
2022/02/22 03:12:34;;;;;;;8.88;2.80;;;5.60;1.00;;;;;;5124274;27;20290;-87
2022/02/22 03:15:02;;;;;;;9.13;2.50;;;5.60;1.00;;;;;;5126343;27;20241;-87
2022/02/22 03:17:29;;;;;;;12.70;2.83;;;5.50;1.00;;;;;;5128384;27;20219;-88
2022/02/22 03:19:55;;;;;;;7.45;2.55;;;5.50;1.00;;;;;;5119202;27;20242;-84
2022/02/22 03:22:22;;;;;;;9.68;3.45;;;5.50;1.00;;;;;;5093350;27;20226;-85
2022/02/22 03:24:49;;;;;;;6.15;2.05;;;5.40;1.00;;;;;;5081237;27;20223;-84
2022/02/22 03:27:16;;;;;;;11.93;2.40;;;5.40;1.00;;;;;;5096250;28;20228;-86
2022/02/22 03:29:43;;;;;;;8.30;2.25;;;5.30;1.00;;;;;;5096372;27;21023;-87
2022/02/22 03:32:11;;;;;;;7.32;2.53;;;5.40;1.00;;;;;;5100311;27;20433;-88
2022/02/22 03:34:38;;;;;;;4.72;1.92;;;5.40;1.00;;;;;;5088121;28;20712;-89
2022/02/22 03:37:05;;;;;;;5.20;2.30;;;5.40;1.00;;;;;;5103511;27;20223;-86
2022/02/22 03:39:32;;;;;;;5.03;2.00;;;5.30;1.00;;;;;;5104458;28;20301;-87
2022/02/22 03:41:59;;;;;;;7.85;2.10;;;5.30;1.00;;;;;;5114726;27;20230;-88
2022/02/22 03:44:26;;;;;;;4.78;2.05;;;5.30;1.00;;;;;;5111180;27;20227;-88
2022/02/22 03:46:53;;;;;;;7.50;2.47;;;5.30;1.00;;;;;;5128325;27;20220;-88
2022/02/22 03:49:21;;;;;;;7.55;2.60;;;5.30;1.00;;;;;;5105992;27;20224;-88
2022/02/22 03:51:48;;;;;;;6.85;2.53;;;5.30;1.00;;;;;;5087039;27;20369;-88
2022/02/22 03:54:15;;;;;;;8.23;2.70;;;5.30;1.00;;;;;;5093289;27;20240;-87
2022/02/22 03:56:43;;;;;;;7.95;2.47;;;5.30;1.00;;;;;;5096592;27;20652;-86
2022/02/22 03:59:11;;;;;;;9.45;2.20;;;5.30;1.00;;;;;;5081825;28;20224;-86
2022/02/22 04:01:38;;;;;;;11.38;2.17;;;5.30;1.00;;;;;;5095886;27;20230;-88
2022/02/22 04:04:05;;;;;;;11.77;2.88;;;5.30;1.00;;;;;;5095682;27;20212;-86
2022/02/22 04:06:33;;;;;;;18.52;3.17;;;5.30;1.00;;;;;;5105528;27;20211;-86
2022/02/22 04:09:00;;;;;;;11.13;4.10;;;5.30;1.00;;;;;;5132010;27;20220;-88
2022/02/22 04:11:27;;;;;;;14.25;4.10;;;5.30;1.00;;;;;;5112053;27;20223;-88
2022/02/22 04:13:53;;;;;;;13.52;3.55;;;5.20;1.00;;;;;;5115947;28;20236;-87
2022/02/22 04:16:21;;;;;;;14.27;3.20;;;5.20;1.00;;;;;;5101355;27;20235;-85
2022/02/22 04:18:48;;;;;;;15.35;3.22;;;5.20;1.00;;;;;;5094309;27;20914;-87
2022/02/22 04:21:15;;;;;;;11.25;4.78;;;5.10;1.00;;;;;;5113670;27;20207;-89
2022/02/22 04:23:43;;;;;;;7.45;3.45;;;5.10;1.00;;;;;;5110222;27;20264;-87
2022/02/22 04:26:10;;;;;;;11.82;4.03;;;5.00;1.00;;;;;;5081112;28;20227;-86
2022/02/22 04:28:37;;;;;;;13.23;3.50;;;5.00;1.00;;;;;;5099452;27;20250;-87
2022/02/22 04:31:04;;;;;;;11.43;3.78;;;5.00;1.00;;;;;;5080347;28;20767;-86
2022/02/22 04:33:31;;;;;;;18.88;4.07;;;4.90;1.00;;;;;;5099518;28;20239;-88
2022/02/22 04:35:58;;;;;;;14.38;3.05;;;4.90;1.00;;;;;;5105896;28;20224;-88
2022/02/22 04:38:25;;;;;;;13.82;3.83;;;5.00;1.00;;;;;;5084600;28;20223;-88
2022/02/22 04:40:53;;;;;;;11.60;3.70;;;5.10;1.00;;;;;;5100347;27;20923;-86
2022/02/22 04:43:20;;;;;;;13.13;2.97;;;5.10;1.00;;;;;;5085650;28;21097;-85
2022/02/22 04:45:47;;;;;;;8.48;4.25;;;5.00;1.00;;;;;;5104691;27;20235;-88
2022/02/22 04:48:14;;;;;;;19.15;4.47;;;5.00;1.00;;;;;;5104945;27;20232;-85
2022/02/22 04:50:41;;;;;;;14.05;3.92;;;5.00;1.00;;;;;;5109514;27;20215;-86
2022/02/22 04:53:09;;;;;;;16.15;4.38;;;5.10;1.00;;;;;;5119694;27;20208;-87
2022/02/22 04:56:02;;;;;;;9.20;3.30;;;5.00;1.00;;;;;;5116560;27;20233;-82
2022/02/22 04:58:28;;;;;;;10.65;4.00;;;4.90;1.00;;;;;;5089846;27;20429;-81
2022/02/22 05:00:55;;;;;;;13.70;3.90;;;4.90;1.00;;;;;;5094391;27;20227;-83
2022/02/22 05:03:22;;;;;;;10.55;4.07;;;4.90;1.00;;;;;;5070079;28;22622;-82
2022/02/22 05:05:49;;;;;;;15.45;4.30;;;4.90;1.00;;;;;;5095691;28;20617;-81
2022/02/22 05:08:16;;;;;;;11.82;3.55;;;4.90;1.00;;;;;;5098164;27;20220;-81
2022/02/22 05:10:43;;;;;;;11.10;3.22;;;4.80;1.00;;;;;;5097733;27;20780;-81
2022/02/22 05:13:11;;;;;;;15.07;5.50;;;4.80;1.00;;;;;;5101297;27;20246;-81
2022/02/22 05:15:37;;;;;;;11.25;3.90;;;4.80;1.00;;;;;;5098664;27;20338;-83
2022/02/22 05:18:05;;;;;;;17.45;4.53;;;4.80;1.00;;;;;;5100053;27;20302;-82
2022/02/22 05:20:32;;;;;;;11.65;4.15;;;4.80;1.00;;;;;;5096450;27;20325;-83
2022/02/22 05:22:59;;;;;;;13.40;3.75;;;4.90;1.00;;;;;;5094939;27;20223;-80
2022/02/22 05:25:26;;;;;;;13.35;4.82;;;4.90;1.00;;;;;;5090200;27;20781;-80
2022/02/22 05:27:53;;;;;;;11.25;3.65;;;4.80;1.00;;;;;;5097466;28;20224;-80
2022/02/22 05:30:21;;;;;;;14.93;4.43;;;4.80;1.00;;;;;;5098779;27;20257;-82
2022/02/22 05:32:47;;;;;;;10.55;4.32;;;4.80;1.00;;;;;;5097577;27;20263;-82
2022/02/22 05:35:14;;;;;;;8.05;3.58;;;4.80;1.00;;;;;;5096017;27;20239;-82
2022/02/22 05:37:41;;;;;;;10.68;4.00;;;4.70;1.00;;;;;;5099458;27;20224;-82
2022/02/22 05:40:09;;;;;;;15.65;4.40;;;4.80;1.00;;;;;;5107973;27;20250;-84
2022/02/22 05:42:37;;;;;;;16.42;5.50;;;4.80;1.00;;;;;;5114824;27;20246;-83
2022/02/22 05:45:05;;;;;;;14.82;3.97;;;4.90;1.00;;;;;;5115248;27;20220;-84
2022/02/22 05:47:33;;;;;;;15.88;5.40;;;4.90;1.00;;;;;;5117049;27;20217;-81
2022/02/22 05:50:00;;;;;;;11.30;4.50;;;4.90;1.00;;;;;;5126983;27;20215;-86
2022/02/22 05:52:26;;;;;;;16.55;3.90;;;4.90;1.00;;;;;;5124104;27;20308;-86
2022/02/22 05:54:53;;;;;;;15.45;4.35;;;4.90;1.00;;;;;;5116298;28;20287;-86
2022/02/22 05:57:20;;;;;;;20.15;6.50;;;4.80;1.00;;;;;;5120047;28;20290;-86
2022/02/22 05:59:47;;;;;;;16.45;4.63;;;4.80;1.00;;;;;;5092160;28;20228;-84
2022/02/22 06:02:14;;;;;;;12.85;4.78;;;4.90;1.00;;;;;;5105191;27;20223;-84
2022/02/22 06:04:43;;;;;;;14.68;4.47;;;4.90;1.00;;;;;;5086618;27;20228;-86
2022/02/22 06:07:10;;;;;;;13.07;4.40;;;5.00;1.00;;;;;;5093913;28;20223;-83
2022/02/22 06:09:38;;;;;;;14.55;5.00;;;5.00;1.00;;;;;;5111959;27;20196;-84
2022/02/22 06:12:06;;;;;;;13.98;4.40;;;5.00;1.00;;;;;;5114623;27;20272;-87
2022/02/22 06:14:35;;;;;;;18.40;5.15;;;5.00;1.00;;;;;;5125519;27;20232;-84
2022/02/22 06:17:01;;;;;;;17.33;4.38;;;5.00;1.00;;;;;;5102950;27;20223;-84
2022/02/22 06:19:28;;;;;;;10.45;4.30;;;5.00;1.00;;;;;;5093479;27;20240;-85
2022/02/22 06:21:56;;;;;;;17.40;4.85;;;5.10;1.00;;;;;;5101167;27;20219;-83
2022/02/22 06:24:23;;;;;;;17.45;4.65;;;5.10;1.00;;;;;;5097882;27;20220;-82
2022/02/22 06:26:50;;;;;;;16.65;4.65;;;5.10;1.00;;;;;;5099485;27;20246;-84
2022/02/22 06:29:17;;;;;;;16.33;4.65;;;5.10;1.00;;;;;;5100366;27;20238;-83
2022/02/22 06:31:54;;;;;;;12.10;4.80;;;5.00;1.00;;;;;;5108668;27;20237;-84
2022/02/22 06:34:21;;;;;;;15.25;5.70;;;5.00;1.00;;;;;;5105798;27;20308;-86
2022/02/22 06:36:48;;;;;;;16.38;5.13;;;5.10;1.00;;;;;;5105047;28;20277;-87
2022/02/22 06:39:16;;;;;;;12.77;5.10;;;5.10;1.00;;;;;;5086757;27;20231;-86
2022/02/22 06:41:43;;;;;;;15.07;4.82;;;5.10;1.00;;;;;;5103947;27;20266;-85
2022/02/22 06:44:10;;;;;;;17.02;4.53;;;5.20;1.00;;;;;;5099241;27;20256;-84
2022/02/22 06:46:37;;;;;;;12.43;4.72;;;5.20;1.00;;;;;;5081609;27;20250;-85
2022/02/22 06:52:34;;;;;;;21.20;6.13;;;5.40;1.00;;;;;;5062779;27;20231;-85
2022/02/22 06:55:22;;;;;;;10.68;5.05;;;5.40;1.00;;;;;;5101911;27;20237;-85
2022/02/22 07:00:56;;;;;;;12.93;3.85;;;5.40;1.00;;;;;;5085567;27;20240;-84
2022/02/22 07:03:23;;;;;;;11.95;4.32;;;5.40;1.00;;;;;;5082462;28;20259;-82
2022/02/22 07:05:50;;;;;;;15.73;4.63;;;5.40;1.00;;;;;;5093562;27;20276;-84
2022/02/22 07:08:17;;;;;;;12.82;4.88;;;5.40;1.00;;;;;;5083709;28;20295;-82
2022/02/22 07:10:44;;;;;;;12.07;4.03;;;5.40;1.00;;;;;;5097656;27;20224;-81
2022/02/22 07:13:12;;;;;;;13.07;5.25;;;5.40;1.00;;;;;;5094079;27;20230;-82
2022/02/22 07:15:39;;;;;;;13.05;4.10;;;5.40;1.00;;;;;;5072159;27;20255;-82
2022/02/22 07:18:07;;;;;;;10.43;3.95;;;5.40;1.00;;;;;;5098588;27;20323;-83
2022/02/22 07:20:35;;;;;;;21.27;7.57;;;5.40;1.00;;;;;;5078829;28;21157;-83
2022/02/22 07:23:02;;;;;;;17.35;5.60;;;5.30;1.00;;;;;;5101861;27;20235;-85
2022/02/22 07:25:40;;;;;;;17.73;6.30;;;5.30;1.00;;;;;;5098618;27;20306;-85
2022/02/22 07:39:25;;;;;;;11.85;5.63;;;5.50;1.00;;;;;;5162040;22;21061;-87
2022/02/22 07:46:23;;;;;;;;;;;;;;;;;;;;;
2022/02/22 07:49:16;;;;;;;;;;;;;;;;;;;;;
2022/02/22 07:56:45;;;;;;;;;;;;;;;;;;;;;
2022/02/22 07:59:57;;;;;;;13.55;4.40;;;5.60;1.00;;;;;;5042744;28;20336;-84
2022/02/22 08:02:54;;;;;;;13.98;3.70;;;5.80;1.00;;;;;;5108887;27;20211;-85
2022/02/22 08:09:20;;;;;;;15.25;4.57;;;6.00;1.00;;;;;;5044132;27;20519;-84
2022/02/22 08:18:18;;;;;;;12.30;3.65;;;6.20;1.00;;;;;;5037184;28;20779;-85
2022/02/22 08:21:25;;;;;;;13.32;4.15;;;6.40;1.00;;;;;;5135731;27;20219;-83
2022/02/22 08:24:07;;;;;;;10.07;4.05;;;6.50;1.00;;;;;;5135581;27;20227;-87
2022/02/22 08:26:46;;;;;;;8.68;3.63;;;6.40;1.00;;;;;;5117806;27;20235;-78
2022/02/22 08:29:17;;;;;;;9.60;3.15;;;6.30;1.00;;;;;;5117768;27;23818;-82
2022/02/22 08:31:50;;;;;;;11.68;3.50;;;6.30;1.00;;;;;;5111421;27;20216;-84
2022/02/22 08:34:41;;;;;;;11.02;4.45;;;6.60;1.00;;;;;;5090038;28;20230;-83
2022/02/22 08:37:50;;;;;;;12.00;3.58;;;6.60;1.00;;;;;;5114240;27;20236;-84
2022/02/22 08:40:22;;;;;;;14.13;7.53;;;6.50;1.00;;;;;;5098876;27;20257;-84
2022/02/22 08:43:39;;;;;;;11.75;4.07;;;6.40;1.00;;;;;;5104049;27;20228;-84
2022/02/22 08:46:13;;;;;;;11.77;3.60;;;6.40;1.00;;;;;;5063851;27;20284;-84
2022/02/22 08:48:40;;;;;;;12.95;3.70;;;6.50;1.00;;;;;;5116024;27;20229;-82
2022/02/22 08:51:14;;;;;;;9.98;4.30;;;6.80;1.00;;;;;;5108473;27;20285;-81
2022/02/22 08:54:04;;;;;;;10.90;4.65;;;7.40;1.00;;;;;;5088901;27;20566;-82
2022/02/22 08:57:04;;;;;;;11.52;3.63;;;7.40;1.00;;;;;;5097632;27;20310;-82
2022/02/22 08:59:59;;;;;;;14.30;4.22;;;7.30;1.00;;;;;;5101381;27;20235;-81
2022/02/22 09:02:26;;;;;;;10.25;3.75;;;7.70;1.00;;;;;;5100098;27;20226;-80
2022/02/22 09:04:53;;;;;;;15.45;4.32;;;8.40;1.00;;;;;;5084054;27;20227;-78
2022/02/22 09:07:20;;;;;;;15.32;4.20;;;8.90;1.00;;;;;;5104227;27;20508;-79
2022/02/22 09:09:48;;;;;;;10.27;3.55;;;9.40;1.00;;;;;;5102351;27;20219;-81
2022/02/22 09:12:15;;;;;;;10.82;3.40;;;9.60;1.00;;;;;;5101251;27;20226;-79
2022/02/22 09:14:41;;;;;;;13.80;4.00;;;10.20;1.00;;;;;;5104122;27;20239;-79
2022/02/22 09:17:08;;;;;;;11.53;3.37;;;10.90;1.00;;;;;;5101208;27;20449;-79
2022/02/22 09:19:35;;;;;;;9.47;3.50;;;11.30;1.00;;;;;;5101191;27;20466;-80
2022/02/22 09:22:02;;;;;;;14.40;3.77;;;11.70;1.00;;;;;;5102343;27;20640;-81
2022/02/22 09:24:29;;;;;;;12.03;3.70;;;11.50;1.00;;;;;;5108700;27;20458;-80
2022/02/22 09:26:57;;;;;;;10.80;3.40;;;10.90;1.00;;;;;;5095885;27;20471;-79
2022/02/22 09:29:24;;;;;;;6.05;2.50;;;10.10;1.00;;;;;;5099603;27;20514;-79
2022/02/22 09:31:51;;;;;;;7.70;2.25;;;9.30;1.00;;;;;;5078089;27;20222;-80
2022/02/22 09:34:18;;;;;;;8.18;2.60;;;8.70;1.00;;;;;;5084317;27;20238;-79
2022/02/22 09:36:45;;;;;;;6.80;2.78;;;8.30;1.00;;;;;;5097910;27;20246;-79
2022/02/22 09:39:12;;;;;;;8.55;2.38;;;7.90;1.00;;;;;;5100150;27;20216;-81
2022/02/22 09:41:39;;;;;;;9.23;2.45;;;7.70;1.00;;;;;;5102152;27;20412;-80
2022/02/22 09:44:07;;;;;;;5.95;2.38;;;7.50;1.00;;;;;;5086262;28;20234;-83
2022/02/22 09:46:35;;;;;;;8.13;2.40;;;7.50;1.00;;;;;;5104253;27;20220;-83
2022/02/22 09:49:01;;;;;;;5.15;2.30;;;7.80;1.00;;;;;;5099426;27;20220;-83
2022/02/22 09:51:28;;;;;;;10.70;2.60;;;8.40;1.00;;;;;;5102633;27;20231;-82
2022/02/22 09:53:55;;;;;;;10.10;2.70;;;9.00;1.00;;;;;;5108664;27;20272;-82
2022/02/22 09:56:24;;;;;;;9.10;2.45;;;8.80;1.00;;;;;;5101520;27;20466;-83
2022/02/22 09:58:51;;;;;;;8.75;3.20;;;8.60;1.00;;;;;;5099691;27;20238;-83
2022/02/22 10:01:19;;;;;;;8.38;2.95;;;8.60;1.00;;;;;;5089306;27;20248;-82
2022/02/22 10:03:57;;;;;;;8.23;3.10;;;8.40;1.00;;;;;;5119486;27;20260;-84
2022/02/22 10:06:25;;;;;;;7.70;2.87;;;8.70;1.00;;;;;;5098393;27;20264;-81
2022/02/22 10:08:55;;;;;;;9.10;2.95;;;8.70;1.00;;;;;;5097825;27;20631;-81
2022/02/22 10:11:22;;;;;;;12.00;2.97;;;8.90;1.00;;;;;;5088291;28;20250;-82
2022/02/22 10:13:49;;;;;;;8.33;2.77;;;9.60;1.00;;;;;;5080030;28;20461;-82
2022/02/22 10:16:17;;;;;;;10.20;3.07;;;10.10;1.00;;;;;;5104551;27;20468;-82
2022/02/22 10:18:50;;;;;;;7.10;2.70;;;10.40;1.00;;;;;;5088353;27;20456;-82
2022/02/22 10:21:18;;;;;;;11.20;4.20;;;11.40;1.00;;;;;;5109083;27;21390;-83
2022/02/22 10:23:45;;;;;;;8.70;2.97;;;11.90;1.00;;;;;;5109410;27;20457;-83
2022/02/22 10:26:20;;;;;;;7.83;3.20;;;11.80;1.00;;;;;;5111034;27;20444;-82
2022/02/22 10:28:47;;;;;;;8.85;2.85;;;10.90;1.00;;;;;;5111771;27;20478;-84
2022/02/22 10:31:14;;;;;;;8.30;2.83;;;9.90;1.00;;;;;;5097004;28;21400;-83
2022/02/22 10:33:43;;;;;;;11.30;4.30;;;9.30;1.00;;;;;;5109046;27;20459;-83
2022/02/22 10:36:18;;;;;;;9.70;3.40;;;9.00;1.00;;;;;;5106291;27;21688;-83
2022/02/22 10:38:45;;;;;;;11.00;3.17;;;8.70;1.00;;;;;;5112106;27;20473;-82
2022/02/22 10:41:15;;;;;;;8.57;3.38;;;8.40;1.00;;;;;;5116422;27;20216;-80
2022/02/22 10:43:50;;;;;;;8.90;3.38;;;8.20;1.00;;;;;;5106245;27;21135;-80
2022/02/22 10:46:24;;;;;;;8.30;3.10;;;8.20;1.00;;;;;;5105666;27;20807;-81
2022/02/22 10:48:59;;;;;;;13.90;4.10;;;8.30;1.00;;;;;;5126649;27;20517;-86
2022/02/22 10:51:34;;;;;;;10.18;3.72;;;8.80;1.00;;;;;;5113322;27;20426;-85
2022/02/22 10:54:02;;;;;;;9.60;3.07;;;9.30;1.00;;;;;;5131434;27;20209;-85
2022/02/22 10:56:31;;;;;;;9.17;2.90;;;9.30;1.00;;;;;;5110460;27;20462;-85
2022/02/22 10:59:08;;;;;;;10.68;4.53;;;9.10;1.00;;;;;;5105438;27;21609;-86
2022/02/22 11:01:36;;;;;;;11.77;3.33;;;9.00;1.00;;;;;;5091933;28;20953;-85
2022/02/22 11:10:40;;;;;;;7.68;3.55;;;8.20;1.00;;;;;;5101438;27;20234;-86
2022/02/22 11:17:11;;;;;;;11.85;3.55;;;8.30;1.00;;;;;;5046472;28;20292;-87
2022/02/22 11:20:13;;;;;;;7.30;3.70;;;8.00;1.00;;;;;;5074743;27;20257;-86
2022/02/22 11:23:21;;;;;;;12.48;4.22;;;7.70;1.00;;;;;;5039145;28;20221;-86
2022/02/22 11:27:07;;;;;;;;;;;;;;;;;;;;;
2022/02/22 11:36:53;;;;;;;13.13;3.47;;;7.40;1.00;;;;;;4960842;28;20264;-87
2022/02/22 11:43:12;;;;;;;11.57;3.30;;;7.90;1.00;;;;;;4959958;28;20318;-86
2022/02/22 11:58:03;;;;;;;9.13;3.47;;;11.20;1.00;;;;;;5090891;27;20461;-84
2022/02/22 12:00:55;;;;;;;5.80;2.93;;;12.90;1.00;;;;;;5092038;28;20481;-86
2022/02/22 12:07:09;;;;;;;7.67;3.00;;;12.20;1.00;;;;;;5125533;27;20433;-83
2022/02/22 12:09:38;;;;;;;9.90;3.60;;;10.90;1.00;;;;;;5131283;27;20533;-78
2022/02/22 12:12:09;;;;;;;9.10;2.87;;;10.50;1.00;;;;;;5131410;27;20466;-79
2022/02/22 12:14:37;;;;;;;15.07;3.92;;;10.20;1.00;;;;;;5122522;27;20418;-80
2022/02/22 12:17:08;;;;;;;11.88;2.78;;;9.70;1.00;;;;;;5122071;27;20238;-79
2022/02/22 12:19:35;;;;;;;9.37;3.30;;;9.20;1.00;;;;;;5107423;27;20864;-80
2022/02/22 12:22:03;;;;;;;9.13;3.47;;;8.80;1.00;;;;;;5098735;27;20454;-79
2022/02/22 12:24:32;;;;;;;9.70;2.90;;;8.60;1.00;;;;;;5096025;27;20466;-79
2022/02/22 12:27:10;;;;;;;10.35;3.83;;;8.70;1.00;;;;;;5102122;27;20283;-79
2022/02/22 12:29:37;;;;;;;8.65;3.75;;;8.90;1.00;;;;;;5104653;27;21613;-80
2022/02/22 12:32:05;;;;;;;10.40;3.33;;;8.90;1.00;;;;;;5084162;27;20317;-80
2022/02/22 12:34:32;;;;;;;11.23;2.83;;;10.00;1.00;;;;;;5106392;27;20465;-80
2022/02/22 12:37:05;;;;;;;8.70;3.60;;;11.10;1.00;;;;;;5098945;27;21397;-80
2022/02/22 12:39:35;;;;;;;9.57;3.10;;;12.20;1.00;;;;;;5101925;27;20992;-81
2022/02/22 12:42:06;;;;;;;10.87;3.37;;;12.80;1.00;;;;;;5095877;27;20468;-79
2022/02/22 12:44:33;;;;;;;9.00;3.23;;;13.70;1.00;;;;;;5077479;28;20430;-80
2022/02/22 12:47:01;;;;;;;8.30;3.53;;;14.70;1.00;;;;;;5095483;27;20403;-81
2022/02/22 12:49:28;;;;;;;10.17;2.83;;;16.10;1.00;;;;;;5092658;27;20415;-80
2022/02/22 12:52:00;;;;;;;9.37;4.07;;;15.60;1.00;;;;;;5093388;27;20498;-80
2022/02/22 12:54:27;;;;;;;8.63;3.73;;;15.10;1.00;;;;;;5095485;27;21355;-80
2022/02/22 12:56:57;;;;;;;8.40;2.83;;;14.60;1.00;;;;;;5100171;27;20458;-83
2022/02/22 12:59:26;;;;;;;8.83;4.20;;;13.30;1.00;;;;;;5104202;27;20599;-80
2022/02/22 13:01:54;;;;;;;14.63;4.63;;;12.10;1.00;;;;;;5097395;27;20445;-80
2022/02/22 13:04:23;;;;;;;10.20;3.33;;;11.50;1.00;;;;;;5103199;27;20533;-80
2022/02/22 13:06:52;;;;;;;7.57;3.40;;;11.90;1.00;;;;;;5096637;27;20878;-84
2022/02/22 13:09:21;;;;;;;9.73;3.70;;;13.10;1.00;;;;;;5088360;27;20442;-83
2022/02/22 13:11:54;;;;;;;9.90;3.20;;;13.20;1.00;;;;;;5099432;27;20447;-84
2022/02/22 13:14:38;;;;;;;11.73;4.67;;;12.50;1.00;;;;;;5082759;27;20604;-82
2022/02/22 13:17:08;;;;;;;13.70;3.93;;;12.40;1.00;;;;;;5085710;27;20469;-83
2022/02/22 13:26:10;;;;;;;9.90;4.37;;;12.00;1.00;;;;;;5025748;28;20446;-84
2022/02/22 13:28:49;;;;;;;9.00;2.87;;;11.70;1.00;;;;;;5044085;28;20469;-83
2022/02/22 13:31:24;;;;;;;7.50;3.20;;;11.50;1.00;;;;;;5026341;28;20496;-84
2022/02/22 13:37:14;;;;;;;5.30;2.27;;;11.60;1.00;;;;;;5097905;27;20529;-84
2022/02/22 13:39:41;;;;;;;9.40;3.17;;;11.30;1.00;;;;;;5112374;27;20453;-83
2022/02/22 13:42:28;;;;;;;8.63;3.00;;;10.90;1.00;;;;;;5108057;27;20513;-84
2022/02/22 13:45:04;;;;;;;11.53;2.40;;;10.60;1.00;;;;;;5102250;27;20416;-84
2022/02/22 13:47:34;;;;;;;8.53;2.93;;;10.20;1.00;;;;;;5102847;27;20433;-83
2022/02/22 13:50:20;;;;;;;14.87;4.10;;;10.00;1.00;;;;;;5110531;27;20448;-82
2022/02/22 13:52:57;;;;;;;14.47;4.27;;;9.80;1.00;;;;;;5108819;27;20740;-85
2022/02/22 13:55:58;;;;;;;11.93;3.50;;;9.70;1.00;;;;;;5108956;27;20502;-83
2022/02/22 13:58:27;;;;;;;8.20;3.60;;;9.60;1.00;;;;;;5095273;27;20503;-82
2022/02/22 14:00:59;;;;;;;8.43;3.30;;;9.50;1.00;;;;;;5109139;27;20453;-84
2022/02/22 14:03:29;;;;;;;9.27;3.67;;;9.40;1.00;;;;;;5102071;27;20455;-84
2022/02/22 14:06:04;;;;;;;10.03;3.63;;;9.30;1.00;;;;;;5108519;27;20560;-86
2022/02/22 14:08:53;;;;;;;12.13;4.37;;;9.20;1.00;;;;;;5120409;27;20607;-85
2022/02/22 14:19:05;;;;;;;7.95;3.30;;;9.30;1.00;;;;;;5058230;28;20414;-87
2022/02/22 14:21:49;;;;;;;15.25;4.78;;;9.20;1.00;;;;;;5025444;28;20947;-89
2022/02/22 14:24:25;;;;;;;12.73;4.47;;;9.10;1.00;;;;;;5033909;28;20281;-87
2022/02/22 14:27:02;;;;;;;8.70;3.63;;;9.00;1.00;;;;;;5113130;27;20842;-85
2022/02/22 14:29:45;;;;;;;12.30;3.60;;;8.90;1.00;;;;;;5108880;27;20469;-86
2022/02/22 14:32:20;;;;;;;8.07;2.88;;;8.80;1.00;;;;;;5112932;27;20455;-88
2022/02/22 14:34:47;;;;;;;6.50;2.90;;;8.70;1.00;;;;;;5109194;28;20221;-87
2022/02/22 14:37:16;;;;;;;6.60;3.78;;;8.70;1.00;;;;;;5114341;28;20291;-86
2022/02/22 14:39:46;;;;;;;11.40;4.05;;;8.60;1.00;;;;;;5109472;27;20294;-87
2022/02/22 14:42:15;;;;;;;12.90;4.45;;;8.60;1.00;;;;;;5111294;27;20223;-87
2022/02/22 14:44:47;;;;;;;10.80;4.00;;;8.60;1.00;;;;;;5112810;27;20227;-88
2022/02/22 14:47:14;;;;;;;11.82;3.97;;;8.50;1.00;;;;;;5109837;27;20558;-87
2022/02/22 14:49:50;;;;;;;12.77;4.40;;;8.50;1.00;;;;;;5110498;27;20262;-86
2022/02/22 14:52:20;;;;;;;9.80;4.00;;;8.50;1.00;;;;;;5111505;27;20455;-86
2022/02/22 14:54:47;;;;;;;11.68;4.55;;;8.40;1.00;;;;;;5109956;27;20237;-86